createdAt,value
2023-05-23T00:01:24.940Z,99190.03
2023-05-23T00:05:29.242Z,99184.16
2023-05-23T00:09:32.002Z,99182.03
2023-05-23T00:13:35.882Z,99176.13
2023-05-23T00:17:39.599Z,99165.81
2023-05-23T00:21:45.664Z,99175.25
2023-05-23T00:25:52.828Z,99144.25
2023-05-23T00:29:56.099Z,99172.06
2023-05-23T00:33:58.762Z,99169.38
2023-05-23T00:38:03.419Z,99176.13
2023-05-23T00:42:07.882Z,99147.75
2023-05-23T00:46:11.203Z,99167.69
2023-05-23T00:50:17.938Z,99170.25
2023-05-23T00:54:27.297Z,99174.16
2023-05-23T00:58:30.428Z,99170.91
2023-05-23T01:02:36.636Z,99180.97
2023-05-23T01:06:40.170Z,99045.66
2023-05-23T01:10:44.313Z,99175.06
2023-05-23T01:14:52.634Z,99178.44
2023-05-23T01:19:00.475Z,99188.53
2023-05-23T01:23:37.939Z,99191.50
2023-05-23T01:27:50.401Z,99188.25
2023-05-23T01:31:54.980Z,99196.09
2023-05-23T01:35:59.930Z,99189.63
2023-05-23T01:40:02.720Z,99180.00
2023-05-23T01:44:06.925Z,99201.28
2023-05-23T01:48:10.607Z,99194.59
2023-05-23T01:52:13.748Z,99187.06
2023-05-23T01:56:16.560Z,99155.75
2023-05-23T02:00:21.042Z,99216.38
2023-05-23T02:04:24.094Z,99215.81
2023-05-23T02:08:26.728Z,99209.03
2023-05-23T02:12:29.432Z,99212.38
2023-05-23T02:16:36.646Z,99212.47
2023-05-23T02:20:40.137Z,99219.38
2023-05-23T02:24:42.891Z,99221.75
2023-05-23T02:28:45.599Z,99235.00
2023-05-23T02:32:49.677Z,99234.28
2023-05-23T02:36:52.568Z,99232.06
2023-05-23T02:40:57.586Z,99233.94
2023-05-23T02:45:00.340Z,99231.59
2023-05-23T02:49:04.306Z,99237.72
2023-05-23T02:53:07.043Z,99235.66
2023-05-23T02:57:10.423Z,99235.81
2023-05-23T03:01:13.103Z,99237.81
2023-05-23T03:05:17.373Z,99226.59
2023-05-23T03:09:20.172Z,99231.19
2023-05-23T03:13:23.447Z,99223.72
2023-05-23T03:17:26.874Z,99232.34
2023-05-23T03:21:31.484Z,99237.69
2023-05-23T03:25:34.483Z,99236.56
2023-05-23T03:29:37.274Z,99247.00
2023-05-23T03:33:40.650Z,99237.69
2023-05-23T03:37:44.921Z,99247.06
2023-05-23T03:41:47.826Z,99202.94
2023-05-23T03:45:50.993Z,99250.16
2023-05-23T03:49:53.833Z,99244.94
2023-05-23T03:53:58.464Z,99241.75
2023-05-23T03:58:01.691Z,99238.81
2023-05-23T04:02:04.651Z,99246.75
2023-05-23T04:06:07.970Z,99244.09
2023-05-23T04:10:12.407Z,99248.75
2023-05-23T04:14:15.797Z,99246.56
2023-05-23T04:18:19.010Z,99245.31
2023-05-23T04:22:21.808Z,99244.53
2023-05-23T04:26:25.904Z,99249.56
2023-05-23T04:30:30.597Z,99258.38
2023-05-23T04:34:34.246Z,99265.78
2023-05-23T04:38:38.468Z,99259.22
2023-05-23T04:42:44.534Z,99271.66
2023-05-23T04:46:47.240Z,99273.41
2023-05-23T04:50:51.329Z,99277.59
2023-05-23T04:54:54.172Z,99271.03
2023-05-23T04:58:58.804Z,99275.75
2023-05-23T05:03:01.547Z,99250.63
2023-05-23T05:07:04.534Z,99278.94
2023-05-23T05:11:07.242Z,99282.28
2023-05-23T05:15:12.848Z,99290.50
2023-05-23T05:19:16.983Z,99287.88
2023-05-23T05:23:20.136Z,99276.50
2023-05-23T05:27:22.847Z,99281.38
2023-05-23T05:31:27.592Z,99290.19
2023-05-23T05:35:30.417Z,99291.00
2023-05-23T05:39:33.119Z,99301.09
2023-05-23T05:43:36.008Z,99299.50
2023-05-23T05:47:40.159Z,99303.31
2023-05-23T05:51:42.849Z,99308.19
2023-05-23T05:55:45.510Z,99314.50
2023-05-23T05:59:48.192Z,99318.22
2023-05-23T06:03:52.387Z,99319.53
2023-05-23T06:07:55.182Z,99310.56
2023-05-23T06:11:57.925Z,99299.69
2023-05-23T06:16:00.792Z,99321.78
2023-05-23T06:20:06.100Z,99314.47
2023-05-23T06:24:09.216Z,99328.16
2023-05-23T06:28:11.882Z,99332.75
2023-05-23T06:32:14.619Z,99329.56
2023-05-23T06:36:18.669Z,99338.31
2023-05-23T06:40:21.456Z,99339.91
2023-05-23T06:44:24.172Z,99354.34
2023-05-23T06:48:26.866Z,99340.84
2023-05-23T06:52:30.934Z,99343.88
2023-05-23T06:56:33.609Z,99372.59
2023-05-23T07:00:36.316Z,99382.25
2023-05-23T07:04:39.224Z,99393.44
2023-05-23T07:08:43.654Z,99396.63
2023-05-23T07:12:46.385Z,99400.59
2023-05-23T07:16:49.299Z,99400.03
2023-05-23T07:20:52.041Z,99405.91
2023-05-23T07:24:56.627Z,99401.88
2023-05-23T07:28:59.812Z,99407.19
2023-05-23T07:33:02.592Z,99413.59
2023-05-23T07:37:05.322Z,99415.19
2023-05-23T07:41:11.983Z,99404.78
2023-05-23T07:45:15.582Z,99401.56
2023-05-23T07:49:18.277Z,99419.16
2023-05-23T07:53:21.114Z,99403.72
2023-05-23T07:57:25.958Z,99412.25
2023-05-23T08:01:29.487Z,99415.34
2023-05-23T08:05:32.167Z,99417.94
2023-05-23T08:09:34.822Z,99409.41
2023-05-23T08:13:38.837Z,99413.66
2023-05-23T08:17:41.657Z,99397.91
2023-05-23T08:21:44.391Z,99410.22
2023-05-23T08:25:47.170Z,99414.63
2023-05-23T08:29:51.374Z,99417.66
2023-05-23T08:33:54.099Z,99417.00
2023-05-23T08:37:58.278Z,99416.13
2023-05-23T08:42:01.796Z,99420.78
2023-05-23T08:46:05.879Z,99423.00
2023-05-23T08:50:10.260Z,99424.94
2023-05-23T08:54:15.718Z,99428.09
2023-05-23T08:58:21.142Z,99435.13
2023-05-23T09:02:25.992Z,99435.47
2023-05-23T09:06:28.688Z,99448.16
2023-05-23T09:10:31.440Z,99446.97
2023-05-23T09:14:34.204Z,99448.59
2023-05-23T09:18:40.162Z,99448.09
2023-05-23T09:22:43.322Z,99439.06
2023-05-23T09:26:47.923Z,99444.19
2023-05-23T09:30:59.205Z,99460.06
2023-05-23T09:35:05.043Z,99454.66
2023-05-23T09:39:08.173Z,99453.41
2023-05-23T09:43:11.033Z,99455.22
2023-05-23T09:47:13.908Z,99462.63
2023-05-23T09:51:19.188Z,99458.22
2023-05-23T09:55:21.864Z,99456.75
2023-05-23T09:59:25.318Z,99451.25
2023-05-23T10:03:33.349Z,99454.91
2023-05-23T10:07:37.974Z,99464.88
2023-05-23T10:12:43.967Z,99446.88
2023-05-23T10:16:56.890Z,99469.66
2023-05-23T10:21:08.658Z,99488.31
2023-05-23T10:25:13.729Z,99481.59
2023-05-23T10:29:16.635Z,99486.97
2023-05-23T10:33:19.806Z,99483.88
2023-05-23T10:37:26.532Z,99490.91
2023-05-23T10:41:48.564Z,99491.66
2023-05-23T10:45:52.150Z,99471.38
2023-05-23T10:49:56.246Z,99495.41
2023-05-23T10:53:58.968Z,99497.59
2023-05-23T10:58:13.134Z,99489.41
2023-05-23T11:02:16.864Z,99497.56
2023-05-23T11:06:34.024Z,99496.41
2023-05-23T11:10:53.495Z,99502.22
2023-05-23T11:14:57.597Z,99504.75
2023-05-23T11:19:23.170Z,99496.13
2023-05-23T11:23:41.036Z,99495.94
2023-05-23T11:27:47.686Z,99488.22
2023-05-23T11:31:51.744Z,99497.56
2023-05-23T11:35:54.469Z,99495.78
2023-05-23T11:39:57.201Z,99495.22
2023-05-23T11:44:01.637Z,99501.47
2023-05-23T11:48:10.078Z,99491.78
2023-05-23T11:52:12.775Z,99483.28
2023-05-23T11:56:16.384Z,99490.41
2023-05-23T12:00:20.073Z,99485.78
2023-05-23T12:04:26.425Z,99481.31
2023-05-23T12:08:29.183Z,99485.31
2023-05-23T12:12:33.108Z,99461.28
2023-05-23T12:16:36.369Z,99486.50
2023-05-23T12:20:42.676Z,99484.88
2023-05-23T12:24:48.516Z,99490.44
2023-05-23T12:28:51.557Z,99494.09
2023-05-23T12:32:54.229Z,99489.50
2023-05-23T12:37:15.029Z,99489.28
2023-05-23T12:41:22.305Z,99493.75
2023-05-23T12:45:31.460Z,99492.66
2023-05-23T12:49:34.141Z,99492.25
2023-05-23T12:53:38.482Z,99487.47
2023-05-23T12:57:41.423Z,99490.31
2023-05-23T13:01:44.212Z,99488.63
2023-05-23T13:05:46.996Z,99487.06
2023-05-23T13:09:51.338Z,99492.97
2023-05-23T13:13:54.032Z,99487.81
2023-05-23T13:17:57.972Z,99494.53
2023-05-23T13:22:01.464Z,99488.81
2023-05-23T13:26:06.591Z,99486.19
2023-05-23T13:30:10.334Z,99488.03
2023-05-23T13:34:13.010Z,99485.63
2023-05-23T13:38:16.305Z,99494.63
2023-05-23T13:42:20.465Z,99476.13
2023-05-23T13:46:23.226Z,99490.34
2023-05-23T13:50:26.245Z,99485.44
2023-05-23T13:54:28.897Z,99499.16
2023-05-23T13:58:33.056Z,99492.06
2023-05-23T14:02:35.904Z,99479.22
2023-05-23T14:06:38.998Z,99491.47
2023-05-23T14:10:41.809Z,99485.88
2023-05-23T14:14:46.132Z,99489.56
2023-05-23T14:18:48.845Z,99486.38
2023-05-23T14:22:52.142Z,99487.16
2023-05-23T14:26:55.076Z,99488.19
2023-05-23T14:30:59.177Z,99490.03
2023-05-23T14:35:01.871Z,99494.09
2023-05-23T14:39:05.988Z,99498.66
2023-05-23T14:43:09.676Z,99497.16
2023-05-23T14:47:13.718Z,99501.25
2023-05-23T14:51:30.399Z,99496.34
2023-05-23T14:55:40.451Z,99499.81
2023-05-23T14:59:43.280Z,99497.06
2023-05-23T15:03:47.392Z,99493.81
2023-05-23T15:07:50.196Z,99496.81
2023-05-23T15:11:52.959Z,99500.47
2023-05-23T15:15:56.675Z,99497.72
2023-05-23T15:20:00.894Z,99488.72
2023-05-23T15:24:04.245Z,99495.72
2023-05-23T15:28:06.971Z,99492.78
2023-05-23T15:32:09.720Z,99496.84
2023-05-23T15:36:14.092Z,99495.31
2023-05-23T15:40:16.901Z,99498.03
2023-05-23T15:44:21.080Z,99502.75
2023-05-23T15:48:23.727Z,99493.22
2023-05-23T15:52:28.210Z,99488.13
2023-05-23T15:56:30.960Z,99491.63
2023-05-23T16:00:33.815Z,99483.63
2023-05-23T16:04:36.982Z,99489.91
2023-05-23T16:08:41.103Z,99495.56
2023-05-23T16:12:43.829Z,99488.66
2023-05-23T16:16:46.652Z,99478.13
2023-05-23T16:20:49.381Z,99481.06
2023-05-23T16:24:55.307Z,99492.75
2023-05-23T16:28:58.210Z,99485.31
2023-05-23T16:33:01.060Z,99485.59
2023-05-23T16:37:03.747Z,99487.13
2023-05-23T16:41:07.814Z,99476.06
2023-05-23T16:45:10.898Z,99477.94
2023-05-23T16:49:13.615Z,99474.47
2023-05-23T16:53:16.327Z,99460.97
2023-05-23T16:57:20.340Z,99473.13
2023-05-23T17:01:23.116Z,99473.66
2023-05-23T17:05:26.704Z,99461.88
2023-05-23T17:09:29.375Z,99476.00
2023-05-23T17:13:34.645Z,99483.81
2023-05-23T17:17:37.612Z,99482.22
2023-05-23T17:21:40.305Z,99485.94
2023-05-23T17:25:43.202Z,99487.88
2023-05-23T17:29:47.415Z,99485.53
2023-05-23T17:33:50.173Z,99487.66
2023-05-23T17:37:57.465Z,99487.44
2023-05-23T17:42:00.973Z,99487.72
2023-05-23T17:46:05.216Z,99496.75
2023-05-23T17:50:10.008Z,99499.13
2023-05-23T17:54:12.707Z,99495.91
2023-05-23T17:58:15.630Z,99500.16
2023-05-23T18:02:19.735Z,99496.38
2023-05-23T18:06:22.423Z,99503.00
2023-05-23T18:10:25.535Z,99505.44
2023-05-23T18:14:28.169Z,99500.13
2023-05-23T18:18:32.518Z,99505.31
2023-05-23T18:22:35.271Z,99516.13
2023-05-23T18:26:42.165Z,99509.50
2023-05-23T18:30:45.094Z,99514.25
2023-05-23T18:34:49.165Z,99515.75
2023-05-23T18:38:52.117Z,99518.66
2023-05-23T18:42:54.902Z,99521.06
2023-05-23T18:46:57.743Z,99528.59
2023-05-23T18:51:01.934Z,99521.38
2023-05-23T18:55:05.675Z,99520.06
2023-05-23T18:59:08.651Z,99532.47
2023-05-23T19:03:11.887Z,99534.66
2023-05-23T19:07:16.305Z,99536.44
2023-05-23T19:11:19.043Z,99549.44
2023-05-23T19:15:22.013Z,99554.69
2023-05-23T19:19:24.741Z,99544.38
2023-05-23T19:23:28.928Z,99562.13
2023-05-23T19:27:31.568Z,99574.38
2023-05-23T19:31:34.315Z,99575.19
2023-05-23T19:35:37.166Z,99580.75
2023-05-23T19:39:45.594Z,99586.81
2023-05-23T19:43:48.349Z,99586.69
2023-05-23T19:47:51.059Z,99592.56
2023-05-23T19:51:53.746Z,99600.63
2023-05-23T19:55:58.491Z,99602.00
2023-05-23T20:00:01.295Z,99614.13
2023-05-23T20:04:04.117Z,99590.06
2023-05-23T20:08:06.881Z,99611.56
2023-05-23T20:12:11.037Z,99616.91
2023-05-23T20:16:13.995Z,99607.78
2023-05-23T20:20:16.739Z,99614.03
2023-05-23T20:24:19.883Z,99609.41
2023-05-23T20:28:23.940Z,99615.09
2023-05-23T20:32:26.860Z,99619.69
2023-05-23T20:36:29.557Z,99631.22
2023-05-23T20:40:33.539Z,99625.19
2023-05-23T20:44:38.176Z,99625.53
2023-05-23T20:48:41.268Z,99633.19
2023-05-23T20:52:44.103Z,99633.19
2023-05-23T20:56:47.157Z,99642.38
2023-05-23T21:00:51.756Z,99641.22
2023-05-23T21:04:54.641Z,99642.97
2023-05-23T21:08:57.502Z,99644.56
2023-05-23T21:13:00.315Z,99647.28
2023-05-23T21:17:04.715Z,99656.03
2023-05-23T21:21:07.481Z,99663.97
2023-05-23T21:25:10.589Z,99660.53
2023-05-23T21:29:13.241Z,99663.56
2023-05-23T21:33:17.496Z,99667.19
2023-05-23T21:37:20.223Z,99671.09
2023-05-23T21:41:25.873Z,99681.88
2023-05-23T21:45:28.589Z,99670.16
2023-05-23T21:49:35.149Z,99673.38
2023-05-23T21:53:37.918Z,99673.81
2023-05-23T21:57:40.606Z,99673.78
2023-05-23T22:01:43.380Z,99659.13
2023-05-23T22:05:47.523Z,99670.22
2023-05-23T22:09:51.147Z,99674.81
2023-05-23T22:13:53.845Z,99671.81
2023-05-23T22:17:57.377Z,99671.63
2023-05-23T22:22:01.484Z,99678.06
2023-05-23T22:26:05.181Z,99675.59
2023-05-23T22:30:08.500Z,99677.41
2023-05-23T22:34:11.305Z,99675.47
2023-05-23T22:38:15.549Z,99674.44
2023-05-23T22:42:18.295Z,99673.38
2023-05-23T22:46:21.012Z,99686.47
2023-05-23T22:50:23.679Z,99686.19
2023-05-23T22:54:27.722Z,99690.06
2023-05-23T22:58:30.426Z,99680.25
2023-05-23T23:02:34.476Z,99688.84
2023-05-23T23:06:37.311Z,99690.47
2023-05-23T23:10:43.858Z,99691.69
2023-05-23T23:14:47.362Z,99690.06
2023-05-23T23:18:50.040Z,99702.38
2023-05-23T23:22:52.742Z,99682.59
2023-05-23T23:26:57.090Z,99668.31
2023-05-23T23:30:59.796Z,99687.56
2023-05-23T23:35:02.599Z,99676.78
2023-05-23T23:39:05.281Z,99683.13
2023-05-23T23:43:09.415Z,99681.56
2023-05-23T23:47:12.081Z,99676.53
2023-05-23T23:51:14.807Z,99674.66
2023-05-23T23:55:17.514Z,99676.75
2023-05-23T23:59:21.888Z,99663.88
